Elmira, CA (95625)

10:24 PM PDT on August 29, 2016 (GMT -0700)
MesoWest | | Change Station

Elev 62 ft 38.40 °N, 121.87 °W | Updated 4 hours ago

Clear
Clear
77 °F
Feels Like 75 °F
N
Wind Variable Wind from North
Gusts 0.0 mph

Today
High -- | Low -- °F
--% Chance of Precip.
Yesterday
High -- | Low -- °F
Precip. -- in
Pressure 29.94 in
Visibility 10.0 miles
Clouds Clear
Heat Index 75 °F
Dew Point Not available.
Humidity Not available.
Rainfall in
Snow Depth Not available.
6:35 AM 7:40 PM
Waning Crescent, 5% visible
METAR KVCB 300453Z AUTO 21007KT 10SM CLR 20/11 A2994 RMK AO2 SLP136 T02000111
Pressure 29.94 in
Visibility 10.0 miles
Clouds Clear
Heat Index 75 °F
Dew Point Not available.
Humidity Not available.
Rainfall in
Snow Depth Not available.
6:35 AM 7:40 PM
Waning Crescent, 5% visible
METAR KVCB 300453Z AUTO 21007KT 10SM CLR 20/11 A2994 RMK AO2 SLP136 T02000111

10-Day Weather Forecast

Almanac

Astronomy

Aug. 29, 2016 Rise Set
Actual Time
Civil Twilight
Nautical Twilight
Astronomical Twilight
Moon
Length of Visible Light
Length of Day
Tomorrow will be .
, % of the Moon is Illuminated

Today's Extremes

State Highs State Lows

Community

WunderPhotos

Upload Photos

1,935,793 photos uploaded!

WunderBlog® & News

Nearby

Air Quality

  Air Quality AQ Index Pollutant
Not available.

Snow Depth

Station Depth Elevation

Earthquake Activity

City Distance Mag. Time & Date
Minimum magnitude displayed is 2.5.

Coastal Water Temperatures

Place Temperature

Stations

Nearby Weather Stations

Station Location Temp. Windchill Dew Point Humidity Wind Precip. Elev Updated Type
                   

Watches & Warnings

There are currently no watches in effect.